Portada
METAR-TAF:

METAR-TAF

Aeroports :

Aeroport de Varsòvia Chopin

Varsòvia, Polònia

latitud: 52-10N, longitud: 020-58E, altitud: 106 m

Observació

L'informe es va fer fa 31 minuts, a les 07:30 UTC
Vent 7 kt del Oest, variant entre Oest/Sud-Oest i Nord-Oest
Temperatura 13°C
Humitat 82%
Pressió 1022 hPa
Visibilitat 10 km o més
Cel ennuvolat a una alçada de 1100 ft

METAR: EPWA 210730Z 27007KT 250V310 9999 BKN011 13/10 Q1022 NOSIG

Hora: 10:01 (08:01 UTC)

Pronòstic

L'informe es va fer fa 2 hores i 31 minuts, a les 05:30 UTC
Pronòstic vàlid del 21 a les 06 UTC al 22 a les 06 UTC
Vent 10 kt del Oest
Visibilitat 10 km o més
Cel ennuvolat a una alçada de 3000 ft
Temporalment
l' 21 a les 06 UTC al 21 a les 08 UTC
Cel ennuvolat a una alçada de 1000 ft
Probabilitat 40%
l' 21 a les 23 UTC al 22 a les 06 UTC
Visibilitat: 4000 m
Cel ennuvolat a una alçada de 500 ft
boirina

TAF: EPWA 210530Z 2106/2206 26010KT 9999 BKN030 TEMPO 2106/2108 BKN010 PROB40 2123/2206 4000 BR BKN005

Observacions i pronòstics meteorològics de més de 4000 aeroports (METAR i TAF).

Les estacions disponibles són els punts grocs i vermells al mapa.

Posi el ratolí al punt desitjat per veure el nom de l'estació.

Feu clic per veure les observacions i els pronòstics meteorològics.

Per canviar el mapa: feu clic els botons verds amb una creu de color negre per apropar; al botó verd amb un guió per allunyar la imatge; o en les fletxes verdes per a mapes adjacents.


METAR-TAF: